sensor_id;sensor_type;location;lat;lon;timestamp;P1;durP1;ratioP1;P2;durP2;ratioP2
6023;SDS011;3040;42.654;23.296;2024-03-02T00:01:29;28.27;;;18.40;;
6023;SDS011;3040;42.654;23.296;2024-03-02T00:03:56;26.60;;;18.70;;
6023;SDS011;3040;42.654;23.296;2024-03-02T00:06:23;27.77;;;18.03;;
6023;SDS011;3040;42.654;23.296;2024-03-02T00:08:50;25.80;;;19.13;;
6023;SDS011;3040;42.654;23.296;2024-03-02T00:11:17;25.70;;;19.53;;
6023;SDS011;3040;42.654;23.296;2024-03-02T00:13:45;26.30;;;18.43;;
6023;SDS011;3040;42.654;23.296;2024-03-02T00:16:13;30.10;;;19.63;;
6023;SDS011;3040;42.654;23.296;2024-03-02T00:18:41;25.13;;;17.90;;
6023;SDS011;3040;42.654;23.296;2024-03-02T00:21:08;23.50;;;17.27;;
6023;SDS011;3040;42.654;23.296;2024-03-02T00:23:36;28.00;;;18.27;;
6023;SDS011;3040;42.654;23.296;2024-03-02T00:26:03;23.37;;;17.13;;
6023;SDS011;3040;42.654;23.296;2024-03-02T00:28:32;29.53;;;18.37;;
6023;SDS011;3040;42.654;23.296;2024-03-02T00:31:01;23.27;;;17.47;;
6023;SDS011;3040;42.654;23.296;2024-03-02T00:33:32;22.50;;;18.57;;
6023;SDS011;3040;42.654;23.296;2024-03-02T00:35:59;25.90;;;18.53;;
6023;SDS011;3040;42.654;23.296;2024-03-02T00:38:27;28.50;;;19.60;;
6023;SDS011;3040;42.654;23.296;2024-03-02T00:40:54;30.00;;;20.03;;
6023;SDS011;3040;42.654;23.296;2024-03-02T00:43:37;29.93;;;20.50;;
6023;SDS011;3040;42.654;23.296;2024-03-02T00:46:07;26.37;;;19.80;;
6023;SDS011;3040;42.654;23.296;2024-03-02T00:48:35;29.63;;;19.70;;
6023;SDS011;3040;42.654;23.296;2024-03-02T00:51:02;29.10;;;18.80;;
6023;SDS011;3040;42.654;23.296;2024-03-02T00:53:29;25.57;;;19.47;;
6023;SDS011;3040;42.654;23.296;2024-03-02T00:55:57;24.10;;;18.57;;
6023;SDS011;3040;42.654;23.296;2024-03-02T00:58:24;24.83;;;18.07;;
6023;SDS011;3040;42.654;23.296;2024-03-02T01:00:50;29.40;;;20.60;;
6023;SDS011;3040;42.654;23.296;2024-03-02T01:03:17;33.40;;;20.20;;
6023;SDS011;3040;42.654;23.296;2024-03-02T01:05:46;28.20;;;20.00;;
6023;SDS011;3040;42.654;23.296;2024-03-02T01:08:12;29.07;;;21.03;;
6023;SDS011;3040;42.654;23.296;2024-03-02T01:10:40;26.47;;;19.43;;
6023;SDS011;3040;42.654;23.296;2024-03-02T01:13:06;30.90;;;20.20;;
6023;SDS011;3040;42.654;23.296;2024-03-02T01:15:33;30.50;;;19.80;;
6023;SDS011;3040;42.654;23.296;2024-03-02T01:18:00;31.07;;;21.77;;
6023;SDS011;3040;42.654;23.296;2024-03-02T01:20:27;30.50;;;20.13;;
6023;SDS011;3040;42.654;23.296;2024-03-02T01:22:55;28.10;;;19.43;;
6023;SDS011;3040;42.654;23.296;2024-03-02T01:25:22;30.50;;;20.83;;
6023;SDS011;3040;42.654;23.296;2024-03-02T01:27:48;23.87;;;17.23;;
6023;SDS011;3040;42.654;23.296;2024-03-02T01:30:15;28.83;;;19.33;;
6023;SDS011;3040;42.654;23.296;2024-03-02T01:32:42;29.90;;;19.93;;
6023;SDS011;3040;42.654;23.296;2024-03-02T01:35:09;26.90;;;18.17;;
6023;SDS011;3040;42.654;23.296;2024-03-02T01:37:35;30.90;;;20.20;;
6023;SDS011;3040;42.654;23.296;2024-03-02T01:40:04;26.10;;;19.27;;
6023;SDS011;3040;42.654;23.296;2024-03-02T01:42:34;28.50;;;19.93;;
6023;SDS011;3040;42.654;23.296;2024-03-02T01:45:02;33.23;;;19.77;;
6023;SDS011;3040;42.654;23.296;2024-03-02T01:47:29;27.03;;;19.63;;
6023;SDS011;3040;42.654;23.296;2024-03-02T01:49:57;28.03;;;18.67;;
6023;SDS011;3040;42.654;23.296;2024-03-02T01:52:24;30.13;;;21.03;;
6023;SDS011;3040;42.654;23.296;2024-03-02T01:54:51;32.50;;;20.83;;
6023;SDS011;3040;42.654;23.296;2024-03-02T01:57:19;26.47;;;17.77;;
6023;SDS011;3040;42.654;23.296;2024-03-02T01:59:46;29.73;;;18.50;;
6023;SDS011;3040;42.654;23.296;2024-03-02T02:02:13;23.10;;;16.53;;
6023;SDS011;3040;42.654;23.296;2024-03-02T02:04:40;29.03;;;18.70;;
6023;SDS011;3040;42.654;23.296;2024-03-02T02:07:07;29.77;;;19.30;;
6023;SDS011;3040;42.654;23.296;2024-03-02T02:09:33;29.57;;;21.00;;
6023;SDS011;3040;42.654;23.296;2024-03-02T02:12:00;28.47;;;20.73;;
6023;SDS011;3040;42.654;23.296;2024-03-02T02:14:30;33.97;;;20.80;;
6023;SDS011;3040;42.654;23.296;2024-03-02T02:16:56;29.63;;;19.07;;
6023;SDS011;3040;42.654;23.296;2024-03-02T02:19:23;32.23;;;18.77;;
6023;SDS011;3040;42.654;23.296;2024-03-02T02:21:51;22.23;;;15.73;;
6023;SDS011;3040;42.654;23.296;2024-03-02T02:24:18;17.90;;;14.57;;
6023;SDS011;3040;42.654;23.296;2024-03-02T02:26:45;18.33;;;15.10;;
6023;SDS011;3040;42.654;23.296;2024-03-02T02:29:11;18.10;;;14.57;;
6023;SDS011;3040;42.654;23.296;2024-03-02T02:31:38;21.07;;;16.20;;
6023;SDS011;3040;42.654;23.296;2024-03-02T02:34:05;20.93;;;16.00;;
6023;SDS011;3040;42.654;23.296;2024-03-02T02:36:32;21.97;;;16.93;;
6023;SDS011;3040;42.654;23.296;2024-03-02T02:39:02;21.73;;;16.27;;
6023;SDS011;3040;42.654;23.296;2024-03-02T02:41:32;21.27;;;15.90;;
6023;SDS011;3040;42.654;23.296;2024-03-02T02:43:59;21.70;;;15.77;;
6023;SDS011;3040;42.654;23.296;2024-03-02T02:46:26;27.17;;;16.83;;
6023;SDS011;3040;42.654;23.296;2024-03-02T02:48:52;24.17;;;16.97;;
6023;SDS011;3040;42.654;23.296;2024-03-02T02:51:19;22.47;;;17.07;;
6023;SDS011;3040;42.654;23.296;2024-03-02T02:53:46;21.27;;;16.57;;
6023;SDS011;3040;42.654;23.296;2024-03-02T02:56:14;22.93;;;17.33;;
6023;SDS011;3040;42.654;23.296;2024-03-02T02:58:41;24.33;;;17.10;;
6023;SDS011;3040;42.654;23.296;2024-03-02T03:01:08;24.20;;;17.10;;
6023;SDS011;3040;42.654;23.296;2024-03-02T03:03:34;25.97;;;16.37;;
6023;SDS011;3040;42.654;23.296;2024-03-02T03:06:01;23.80;;;16.70;;
6023;SDS011;3040;42.654;23.296;2024-03-02T03:08:28;25.70;;;19.97;;
6023;SDS011;3040;42.654;23.296;2024-03-02T03:10:55;26.40;;;19.20;;
6023;SDS011;3040;42.654;23.296;2024-03-02T03:13:23;26.47;;;17.43;;
6023;SDS011;3040;42.654;23.296;2024-03-02T03:15:50;23.87;;;18.53;;
6023;SDS011;3040;42.654;23.296;2024-03-02T03:18:16;23.63;;;19.17;;
6023;SDS011;3040;42.654;23.296;2024-03-02T03:20:43;23.37;;;17.90;;
6023;SDS011;3040;42.654;23.296;2024-03-02T03:23:10;23.60;;;17.47;;
6023;SDS011;3040;42.654;23.296;2024-03-02T03:25:40;22.60;;;17.37;;
6023;SDS011;3040;42.654;23.296;2024-03-02T03:28:07;20.97;;;17.10;;
6023;SDS011;3040;42.654;23.296;2024-03-02T03:30:36;24.40;;;18.67;;
6023;SDS011;3040;42.654;23.296;2024-03-02T03:33:03;24.03;;;19.33;;
6023;SDS011;3040;42.654;23.296;2024-03-02T03:35:31;24.03;;;18.50;;
6023;SDS011;3040;42.654;23.296;2024-03-02T03:37:57;31.63;;;21.23;;
6023;SDS011;3040;42.654;23.296;2024-03-02T03:40:24;33.93;;;22.23;;
6023;SDS011;3040;42.654;23.296;2024-03-02T03:42:51;36.30;;;22.73;;
6023;SDS011;3040;42.654;23.296;2024-03-02T03:45:18;34.37;;;23.57;;
6023;SDS011;3040;42.654;23.296;2024-03-02T03:47:46;41.33;;;24.73;;
6023;SDS011;3040;42.654;23.296;2024-03-02T03:50:13;37.40;;;25.77;;
6023;SDS011;3040;42.654;23.296;2024-03-02T03:52:39;38.20;;;25.40;;
6023;SDS011;3040;42.654;23.296;2024-03-02T03:55:06;42.03;;;26.43;;
6023;SDS011;3040;42.654;23.296;2024-03-02T03:57:34;43.47;;;26.27;;
6023;SDS011;3040;42.654;23.296;2024-03-02T04:00:01;39.67;;;26.70;;
6023;SDS011;3040;42.654;23.296;2024-03-02T04:02:27;43.03;;;25.33;;
6023;SDS011;3040;42.654;23.296;2024-03-02T04:04:56;39.03;;;25.23;;
6023;SDS011;3040;42.654;23.296;2024-03-02T04:07:22;40.00;;;26.33;;
6023;SDS011;3040;42.654;23.296;2024-03-02T04:09:49;42.27;;;26.80;;
6023;SDS011;3040;42.654;23.296;2024-03-02T04:12:15;45.23;;;27.07;;
6023;SDS011;3040;42.654;23.296;2024-03-02T04:14:42;36.13;;;25.57;;
6023;SDS011;3040;42.654;23.296;2024-03-02T04:17:09;36.40;;;25.27;;
6023;SDS011;3040;42.654;23.296;2024-03-02T04:19:35;38.13;;;24.53;;
6023;SDS011;3040;42.654;23.296;2024-03-02T04:22:04;42.90;;;25.77;;
6023;SDS011;3040;42.654;23.296;2024-03-02T04:24:31;42.57;;;26.27;;
6023;SDS011;3040;42.654;23.296;2024-03-02T04:26:57;43.40;;;27.23;;
6023;SDS011;3040;42.654;23.296;2024-03-02T04:29:24;40.27;;;26.53;;
6023;SDS011;3040;42.654;23.296;2024-03-02T04:31:51;42.07;;;27.47;;
6023;SDS011;3040;42.654;23.296;2024-03-02T04:34:17;41.87;;;26.73;;
6023;SDS011;3040;42.654;23.296;2024-03-02T04:36:44;41.60;;;27.43;;
6023;SDS011;3040;42.654;23.296;2024-03-02T04:39:12;48.30;;;28.57;;
6023;SDS011;3040;42.654;23.296;2024-03-02T04:41:39;42.90;;;27.13;;
6023;SDS011;3040;42.654;23.296;2024-03-02T04:44:05;46.73;;;26.53;;
6023;SDS011;3040;42.654;23.296;2024-03-02T04:46:33;39.03;;;25.80;;
6023;SDS011;3040;42.654;23.296;2024-03-02T04:48:59;39.30;;;24.80;;
6023;SDS011;3040;42.654;23.296;2024-03-02T04:51:26;41.50;;;25.93;;
6023;SDS011;3040;42.654;23.296;2024-03-02T04:53:53;44.53;;;26.20;;
6023;SDS011;3040;42.654;23.296;2024-03-02T04:56:21;43.23;;;26.20;;
6023;SDS011;3040;42.654;23.296;2024-03-02T04:59:09;46.37;;;27.20;;
6023;SDS011;3040;42.654;23.296;2024-03-02T05:01:36;44.83;;;27.03;;
6023;SDS011;3040;42.654;23.296;2024-03-02T05:04:02;40.80;;;25.43;;
6023;SDS011;3040;42.654;23.296;2024-03-02T05:06:29;39.80;;;26.53;;
6023;SDS011;3040;42.654;23.296;2024-03-02T05:08:56;42.60;;;26.07;;
6023;SDS011;3040;42.654;23.296;2024-03-02T05:11:24;41.17;;;24.33;;
6023;SDS011;3040;42.654;23.296;2024-03-02T05:14:08;41.20;;;26.50;;
6023;SDS011;3040;42.654;23.296;2024-03-02T05:16:35;42.87;;;27.40;;
6023;SDS011;3040;42.654;23.296;2024-03-02T05:19:03;41.97;;;27.10;;
6023;SDS011;3040;42.654;23.296;2024-03-02T05:21:32;36.97;;;25.57;;
6023;SDS011;3040;42.654;23.296;2024-03-02T05:23:58;48.47;;;30.57;;
6023;SDS011;3040;42.654;23.296;2024-03-02T05:26:27;46.40;;;31.40;;
6023;SDS011;3040;42.654;23.296;2024-03-02T05:28:53;48.97;;;28.97;;
6023;SDS011;3040;42.654;23.296;2024-03-02T05:31:20;43.77;;;30.27;;
6023;SDS011;3040;42.654;23.296;2024-03-02T05:33:47;42.70;;;27.47;;
6023;SDS011;3040;42.654;23.296;2024-03-02T05:36:14;42.90;;;27.93;;
6023;SDS011;3040;42.654;23.296;2024-03-02T05:38:40;44.33;;;27.70;;
6023;SDS011;3040;42.654;23.296;2024-03-02T05:41:07;41.47;;;26.10;;
6023;SDS011;3040;42.654;23.296;2024-03-02T05:43:35;44.10;;;28.27;;
6023;SDS011;3040;42.654;23.296;2024-03-02T05:46:02;46.87;;;28.87;;
6023;SDS011;3040;42.654;23.296;2024-03-02T05:48:29;38.40;;;27.13;;
6023;SDS011;3040;42.654;23.296;2024-03-02T05:50:56;43.07;;;27.97;;
6023;SDS011;3040;42.654;23.296;2024-03-02T05:53:22;44.50;;;28.63;;
6023;SDS011;3040;42.654;23.296;2024-03-02T05:55:49;44.57;;;28.47;;
6023;SDS011;3040;42.654;23.296;2024-03-02T05:58:18;44.37;;;28.77;;
6023;SDS011;3040;42.654;23.296;2024-03-02T06:00:57;50.27;;;29.07;;
6023;SDS011;3040;42.654;23.296;2024-03-02T06:03:24;44.43;;;29.30;;
6023;SDS011;3040;42.654;23.296;2024-03-02T06:05:51;42.80;;;27.47;;
6023;SDS011;3040;42.654;23.296;2024-03-02T06:08:18;40.93;;;27.97;;
6023;SDS011;3040;42.654;23.296;2024-03-02T06:10:44;43.57;;;29.47;;
6023;SDS011;3040;42.654;23.296;2024-03-02T06:13:11;41.23;;;27.20;;
6023;SDS011;3040;42.654;23.296;2024-03-02T06:15:38;44.97;;;29.23;;
6023;SDS011;3040;42.654;23.296;2024-03-02T06:18:06;43.17;;;27.90;;
6023;SDS011;3040;42.654;23.296;2024-03-02T06:20:33;39.17;;;26.53;;
6023;SDS011;3040;42.654;23.296;2024-03-02T06:23:00;42.23;;;28.20;;
6023;SDS011;3040;42.654;23.296;2024-03-02T06:25:27;47.87;;;29.40;;
6023;SDS011;3040;42.654;23.296;2024-03-02T06:27:53;45.90;;;28.17;;
6023;SDS011;3040;42.654;23.296;2024-03-02T06:30:20;46.30;;;29.83;;
6023;SDS011;3040;42.654;23.296;2024-03-02T06:32:47;42.20;;;28.63;;
6023;SDS011;3040;42.654;23.296;2024-03-02T06:35:15;42.47;;;29.27;;
6023;SDS011;3040;42.654;23.296;2024-03-02T06:37:42;46.70;;;29.90;;
6023;SDS011;3040;42.654;23.296;2024-03-02T06:40:08;45.07;;;29.97;;
6023;SDS011;3040;42.654;23.296;2024-03-02T06:42:35;42.07;;;27.67;;
6023;SDS011;3040;42.654;23.296;2024-03-02T06:45:02;45.40;;;29.80;;
6023;SDS011;3040;42.654;23.296;2024-03-02T06:47:29;45.07;;;30.00;;
6023;SDS011;3040;42.654;23.296;2024-03-02T06:49:56;44.80;;;27.10;;
6023;SDS011;3040;42.654;23.296;2024-03-02T06:52:25;43.53;;;27.57;;
6023;SDS011;3040;42.654;23.296;2024-03-02T06:54:51;44.93;;;27.10;;
6023;SDS011;3040;42.654;23.296;2024-03-02T06:57:18;36.97;;;24.27;;
6023;SDS011;3040;42.654;23.296;2024-03-02T06:59:46;30.03;;;20.17;;
6023;SDS011;3040;42.654;23.296;2024-03-02T07:02:13;32.03;;;21.57;;
6023;SDS011;3040;42.654;23.296;2024-03-02T07:04:40;26.00;;;19.37;;
6023;SDS011;3040;42.654;23.296;2024-03-02T07:07:07;28.97;;;21.07;;
6023;SDS011;3040;42.654;23.296;2024-03-02T07:09:35;26.93;;;20.33;;
6023;SDS011;3040;42.654;23.296;2024-03-02T07:12:02;28.03;;;18.17;;
6023;SDS011;3040;42.654;23.296;2024-03-02T07:14:28;27.30;;;18.50;;
6023;SDS011;3040;42.654;23.296;2024-03-02T07:17:09;26.40;;;19.77;;
6023;SDS011;3040;42.654;23.296;2024-03-02T07:19:36;27.40;;;19.50;;
6023;SDS011;3040;42.654;23.296;2024-03-02T07:22:05;28.10;;;19.97;;
6023;SDS011;3040;42.654;23.296;2024-03-02T07:24:34;27.90;;;18.90;;
6023;SDS011;3040;42.654;23.296;2024-03-02T07:27:06;26.93;;;18.60;;
6023;SDS011;3040;42.654;23.296;2024-03-02T07:29:33;27.90;;;18.03;;
6023;SDS011;3040;42.654;23.296;2024-03-02T07:31:59;25.43;;;16.47;;
6023;SDS011;3040;42.654;23.296;2024-03-02T07:34:26;20.07;;;16.53;;
6023;SDS011;3040;42.654;23.296;2024-03-02T07:36:53;30.13;;;19.17;;
6023;SDS011;3040;42.654;23.296;2024-03-02T07:39:20;26.93;;;17.67;;
6023;SDS011;3040;42.654;23.296;2024-03-02T07:41:48;26.27;;;17.77;;
6023;SDS011;3040;42.654;23.296;2024-03-02T07:44:15;27.77;;;18.73;;
6023;SDS011;3040;42.654;23.296;2024-03-02T07:46:44;28.43;;;18.93;;
6023;SDS011;3040;42.654;23.296;2024-03-02T07:49:11;29.30;;;19.23;;
6023;SDS011;3040;42.654;23.296;2024-03-02T07:51:39;27.60;;;19.03;;
6023;SDS011;3040;42.654;23.296;2024-03-02T07:54:06;25.67;;;19.00;;
6023;SDS011;3040;42.654;23.296;2024-03-02T07:56:32;25.47;;;16.73;;
6023;SDS011;3040;42.654;23.296;2024-03-02T07:59:01;27.03;;;19.47;;
6023;SDS011;3040;42.654;23.296;2024-03-02T08:01:28;34.00;;;20.40;;
6023;SDS011;3040;42.654;23.296;2024-03-02T08:03:55;24.17;;;19.20;;
6023;SDS011;3040;42.654;23.296;2024-03-02T08:06:23;34.10;;;20.40;;
6023;SDS011;3040;42.654;23.296;2024-03-02T08:08:52;26.93;;;19.77;;
6023;SDS011;3040;42.654;23.296;2024-03-02T08:11:19;29.13;;;19.37;;
6023;SDS011;3040;42.654;23.296;2024-03-02T08:13:46;32.30;;;20.27;;
6023;SDS011;3040;42.654;23.296;2024-03-02T08:16:14;29.73;;;19.60;;
6023;SDS011;3040;42.654;23.296;2024-03-02T08:18:44;43.73;;;24.67;;
6023;SDS011;3040;42.654;23.296;2024-03-02T08:21:11;30.57;;;21.60;;
6023;SDS011;3040;42.654;23.296;2024-03-02T08:23:38;30.90;;;19.43;;
6023;SDS011;3040;42.654;23.296;2024-03-02T08:26:07;33.77;;;21.20;;
6023;SDS011;3040;42.654;23.296;2024-03-02T08:28:33;30.63;;;21.47;;
6023;SDS011;3040;42.654;23.296;2024-03-02T08:31:02;34.50;;;22.87;;
6023;SDS011;3040;42.654;23.296;2024-03-02T08:33:29;34.70;;;22.27;;
6023;SDS011;3040;42.654;23.296;2024-03-02T08:35:56;47.27;;;25.20;;
6023;SDS011;3040;42.654;23.296;2024-03-02T08:38:22;43.23;;;25.90;;
6023;SDS011;3040;42.654;23.296;2024-03-02T08:40:50;38.80;;;23.20;;
6023;SDS011;3040;42.654;23.296;2024-03-02T08:43:16;37.30;;;22.83;;
6023;SDS011;3040;42.654;23.296;2024-03-02T08:45:43;28.77;;;18.90;;
6023;SDS011;3040;42.654;23.296;2024-03-02T08:48:12;27.20;;;19.07;;
6023;SDS011;3040;42.654;23.296;2024-03-02T08:50:40;30.17;;;18.37;;
6023;SDS011;3040;42.654;23.296;2024-03-02T08:53:07;36.40;;;21.33;;
6023;SDS011;3040;42.654;23.296;2024-03-02T08:55:34;32.73;;;19.97;;
6023;SDS011;3040;42.654;23.296;2024-03-02T08:58:00;34.73;;;21.47;;
6023;SDS011;3040;42.654;23.296;2024-03-02T09:00:27;30.07;;;20.00;;
6023;SDS011;3040;42.654;23.296;2024-03-02T09:02:54;44.77;;;22.80;;
6023;SDS011;3040;42.654;23.296;2024-03-02T09:05:21;30.27;;;19.40;;
6023;SDS011;3040;42.654;23.296;2024-03-02T09:07:49;33.60;;;20.43;;
6023;SDS011;3040;42.654;23.296;2024-03-02T09:10:15;36.00;;;19.40;;
6023;SDS011;3040;42.654;23.296;2024-03-02T09:12:42;29.23;;;19.97;;
6023;SDS011;3040;42.654;23.296;2024-03-02T09:15:09;26.93;;;19.03;;
6023;SDS011;3040;42.654;23.296;2024-03-02T09:17:36;33.67;;;21.07;;
6023;SDS011;3040;42.654;23.296;2024-03-02T09:20:03;26.17;;;16.80;;
6023;SDS011;3040;42.654;23.296;2024-03-02T09:22:31;24.47;;;18.07;;
6023;SDS011;3040;42.654;23.296;2024-03-02T09:24:59;29.93;;;19.73;;
6023;SDS011;3040;42.654;23.296;2024-03-02T09:27:26;28.70;;;19.30;;
6023;SDS011;3040;42.654;23.296;2024-03-02T09:29:53;23.97;;;17.47;;
6023;SDS011;3040;42.654;23.296;2024-03-02T09:32:20;24.53;;;17.10;;
6023;SDS011;3040;42.654;23.296;2024-03-02T09:34:46;21.30;;;15.90;;
6023;SDS011;3040;42.654;23.296;2024-03-02T09:37:14;23.70;;;18.63;;
6023;SDS011;3040;42.654;23.296;2024-03-02T09:39:43;32.90;;;19.73;;
6023;SDS011;3040;42.654;23.296;2024-03-02T09:42:11;26.87;;;19.37;;
6023;SDS011;3040;42.654;23.296;2024-03-02T09:44:39;25.07;;;19.23;;
6023;SDS011;3040;42.654;23.296;2024-03-02T09:47:06;25.93;;;19.03;;
6023;SDS011;3040;42.654;23.296;2024-03-02T09:49:34;31.83;;;19.10;;
6023;SDS011;3040;42.654;23.296;2024-03-02T09:52:01;30.73;;;18.33;;
6023;SDS011;3040;42.654;23.296;2024-03-02T09:54:31;29.07;;;18.40;;
6023;SDS011;3040;42.654;23.296;2024-03-02T09:56:57;24.93;;;17.73;;
6023;SDS011;3040;42.654;23.296;2024-03-02T09:59:28;24.77;;;17.97;;
6023;SDS011;3040;42.654;23.296;2024-03-02T10:01:55;26.07;;;18.03;;
6023;SDS011;3040;42.654;23.296;2024-03-02T10:04:23;27.53;;;19.20;;
6023;SDS011;3040;42.654;23.296;2024-03-02T10:06:51;26.67;;;18.27;;
6023;SDS011;3040;42.654;23.296;2024-03-02T10:09:36;30.70;;;19.50;;
6023;SDS011;3040;42.654;23.296;2024-03-02T10:12:03;28.07;;;19.80;;
6023;SDS011;3040;42.654;23.296;2024-03-02T10:14:32;31.77;;;20.50;;
6023;SDS011;3040;42.654;23.296;2024-03-02T10:17:01;29.17;;;19.77;;
6023;SDS011;3040;42.654;23.296;2024-03-02T10:19:29;25.60;;;19.23;;
6023;SDS011;3040;42.654;23.296;2024-03-02T10:21:58;30.27;;;20.63;;
6023;SDS011;3040;42.654;23.296;2024-03-02T10:24:25;27.87;;;20.10;;
6023;SDS011;3040;42.654;23.296;2024-03-02T10:26:52;29.53;;;20.57;;
6023;SDS011;3040;42.654;23.296;2024-03-02T10:29:19;32.70;;;20.77;;
6023;SDS011;3040;42.654;23.296;2024-03-02T10:31:47;31.93;;;20.60;;
6023;SDS011;3040;42.654;23.296;2024-03-02T10:34:14;34.73;;;21.60;;
6023;SDS011;3040;42.654;23.296;2024-03-02T10:36:41;35.70;;;22.40;;
6023;SDS011;3040;42.654;23.296;2024-03-02T10:39:09;30.03;;;21.87;;
6023;SDS011;3040;42.654;23.296;2024-03-02T10:41:37;30.40;;;21.30;;
6023;SDS011;3040;42.654;23.296;2024-03-02T10:44:05;29.57;;;19.87;;
6023;SDS011;3040;42.654;23.296;2024-03-02T10:46:35;30.87;;;20.17;;
6023;SDS011;3040;42.654;23.296;2024-03-02T10:49:04;30.33;;;20.60;;
6023;SDS011;3040;42.654;23.296;2024-03-02T10:51:32;35.87;;;22.57;;
6023;SDS011;3040;42.654;23.296;2024-03-02T10:54:01;31.97;;;21.63;;
6023;SDS011;3040;42.654;23.296;2024-03-02T10:56:30;33.73;;;22.33;;
6023;SDS011;3040;42.654;23.296;2024-03-02T10:59:01;31.23;;;21.40;;
6023;SDS011;3040;42.654;23.296;2024-03-02T11:01:31;33.80;;;20.73;;
6023;SDS011;3040;42.654;23.296;2024-03-02T11:03:59;31.83;;;20.30;;
6023;SDS011;3040;42.654;23.296;2024-03-02T11:06:30;30.27;;;20.87;;
6023;SDS011;3040;42.654;23.296;2024-03-02T11:09:00;29.77;;;19.67;;
6023;SDS011;3040;42.654;23.296;2024-03-02T11:11:35;29.93;;;20.10;;
6023;SDS011;3040;42.654;23.296;2024-03-02T11:14:07;32.47;;;20.67;;
6023;SDS011;3040;42.654;23.296;2024-03-02T11:16:37;30.53;;;20.63;;
6023;SDS011;3040;42.654;23.296;2024-03-02T11:19:08;34.43;;;21.83;;
6023;SDS011;3040;42.654;23.296;2024-03-02T11:21:37;36.40;;;22.47;;
6023;SDS011;3040;42.654;23.296;2024-03-02T11:26:59;33.40;;;22.03;;
6023;SDS011;3040;42.654;23.296;2024-03-02T11:29:45;32.40;;;21.07;;
6023;SDS011;3040;42.654;23.296;2024-03-02T11:32:16;34.83;;;22.70;;
6023;SDS011;3040;42.654;23.296;2024-03-02T11:34:46;33.00;;;21.37;;
6023;SDS011;3040;42.654;23.296;2024-03-02T11:37:14;39.53;;;23.20;;
6023;SDS011;3040;42.654;23.296;2024-03-02T11:39:42;39.87;;;22.13;;
6023;SDS011;3040;42.654;23.296;2024-03-02T11:42:10;39.23;;;21.87;;
6023;SDS011;3040;42.654;23.296;2024-03-02T11:44:39;33.47;;;21.63;;
6023;SDS011;3040;42.654;23.296;2024-03-02T11:47:09;36.13;;;22.10;;
6023;SDS011;3040;42.654;23.296;2024-03-02T11:49:39;32.33;;;22.23;;
6023;SDS011;3040;42.654;23.296;2024-03-02T11:52:09;32.00;;;22.97;;
6023;SDS011;3040;42.654;23.296;2024-03-02T11:54:37;35.13;;;22.93;;
6023;SDS011;3040;42.654;23.296;2024-03-02T11:57:05;32.23;;;21.43;;
6023;SDS011;3040;42.654;23.296;2024-03-02T11:59:33;29.93;;;21.60;;
6023;SDS011;3040;42.654;23.296;2024-03-02T12:02:01;31.20;;;20.03;;
6023;SDS011;3040;42.654;23.296;2024-03-02T12:04:29;29.37;;;20.30;;
6023;SDS011;3040;42.654;23.296;2024-03-02T12:06:57;29.40;;;20.63;;
6023;SDS011;3040;42.654;23.296;2024-03-02T12:09:27;27.63;;;19.20;;
6023;SDS011;3040;42.654;23.296;2024-03-02T12:12:04;31.47;;;20.27;;
6023;SDS011;3040;42.654;23.296;2024-03-02T12:14:31;33.20;;;22.23;;
6023;SDS011;3040;42.654;23.296;2024-03-02T12:16:59;28.53;;;20.73;;
6023;SDS011;3040;42.654;23.296;2024-03-02T12:19:26;26.03;;;18.97;;
6023;SDS011;3040;42.654;23.296;2024-03-02T12:21:55;25.50;;;18.23;;
6023;SDS011;3040;42.654;23.296;2024-03-02T12:24:22;25.43;;;18.70;;
6023;SDS011;3040;42.654;23.296;2024-03-02T12:26:50;24.57;;;18.37;;
6023;SDS011;3040;42.654;23.296;2024-03-02T12:29:18;27.20;;;18.77;;
6023;SDS011;3040;42.654;23.296;2024-03-02T12:31:47;23.67;;;18.57;;
6023;SDS011;3040;42.654;23.296;2024-03-02T12:34:15;32.90;;;21.13;;
6023;SDS011;3040;42.654;23.296;2024-03-02T12:36:43;27.03;;;20.43;;
6023;SDS011;3040;42.654;23.296;2024-03-02T12:39:12;26.30;;;18.73;;
6023;SDS011;3040;42.654;23.296;2024-03-02T12:41:41;30.07;;;20.97;;
6023;SDS011;3040;42.654;23.296;2024-03-02T12:44:09;26.57;;;19.37;;
6023;SDS011;3040;42.654;23.296;2024-03-02T12:46:36;27.33;;;20.70;;
6023;SDS011;3040;42.654;23.296;2024-03-02T12:49:07;30.27;;;21.73;;
6023;SDS011;3040;42.654;23.296;2024-03-02T12:51:36;28.83;;;19.33;;
6023;SDS011;3040;42.654;23.296;2024-03-02T12:54:03;26.23;;;19.83;;
6023;SDS011;3040;42.654;23.296;2024-03-02T12:56:30;24.83;;;20.10;;
6023;SDS011;3040;42.654;23.296;2024-03-02T12:58:58;25.07;;;19.20;;
6023;SDS011;3040;42.654;23.296;2024-03-02T13:01:27;26.03;;;19.80;;
6023;SDS011;3040;42.654;23.296;2024-03-02T13:03:54;28.07;;;20.00;;
6023;SDS011;3040;42.654;23.296;2024-03-02T13:06:22;25.73;;;19.53;;
6023;SDS011;3040;42.654;23.296;2024-03-02T13:08:49;29.33;;;19.97;;
6023;SDS011;3040;42.654;23.296;2024-03-02T13:11:16;25.00;;;19.53;;
6023;SDS011;3040;42.654;23.296;2024-03-02T13:13:43;24.37;;;19.30;;
6023;SDS011;3040;42.654;23.296;2024-03-02T13:16:10;26.33;;;20.17;;
6023;SDS011;3040;42.654;23.296;2024-03-02T13:18:39;24.07;;;18.77;;
6023;SDS011;3040;42.654;23.296;2024-03-02T13:21:06;24.10;;;18.60;;
6023;SDS011;3040;42.654;23.296;2024-03-02T13:23:33;21.60;;;19.30;;
6023;SDS011;3040;42.654;23.296;2024-03-02T13:26:00;25.57;;;19.10;;
6023;SDS011;3040;42.654;23.296;2024-03-02T13:28:27;23.63;;;18.83;;
6023;SDS011;3040;42.654;23.296;2024-03-02T13:30:54;23.60;;;18.50;;
6023;SDS011;3040;42.654;23.296;2024-03-02T13:33:20;24.60;;;19.50;;
6023;SDS011;3040;42.654;23.296;2024-03-02T13:35:50;25.30;;;18.70;;
6023;SDS011;3040;42.654;23.296;2024-03-02T13:38:16;24.30;;;18.67;;
6023;SDS011;3040;42.654;23.296;2024-03-02T13:40:43;27.83;;;18.37;;
6023;SDS011;3040;42.654;23.296;2024-03-02T13:43:10;24.40;;;18.57;;
6023;SDS011;3040;42.654;23.296;2024-03-02T13:45:37;30.37;;;20.13;;
6023;SDS011;3040;42.654;23.296;2024-03-02T13:48:04;35.87;;;22.20;;
6023;SDS011;3040;42.654;23.296;2024-03-02T13:50:33;24.57;;;19.60;;
6023;SDS011;3040;42.654;23.296;2024-03-02T13:53:01;26.80;;;20.23;;
6023;SDS011;3040;42.654;23.296;2024-03-02T13:55:28;24.03;;;19.83;;
6023;SDS011;3040;42.654;23.296;2024-03-02T13:57:55;24.20;;;20.60;;
6023;SDS011;3040;42.654;23.296;2024-03-02T14:00:22;26.83;;;21.13;;
6023;SDS011;3040;42.654;23.296;2024-03-02T14:02:48;29.97;;;21.27;;
6023;SDS011;3040;42.654;23.296;2024-03-02T14:05:16;29.93;;;21.03;;
6023;SDS011;3040;42.654;23.296;2024-03-02T14:07:44;25.00;;;19.63;;
6023;SDS011;3040;42.654;23.296;2024-03-02T14:10:12;39.13;;;25.57;;
6023;SDS011;3040;42.654;23.296;2024-03-02T14:12:40;26.47;;;19.87;;
6023;SDS011;3040;42.654;23.296;2024-03-02T14:15:07;25.67;;;20.63;;
6023;SDS011;3040;42.654;23.296;2024-03-02T14:17:34;32.03;;;23.27;;
6023;SDS011;3040;42.654;23.296;2024-03-02T14:20:01;34.27;;;24.27;;
6023;SDS011;3040;42.654;23.296;2024-03-02T14:22:30;34.50;;;24.47;;
6023;SDS011;3040;42.654;23.296;2024-03-02T14:24:56;32.57;;;24.80;;
6023;SDS011;3040;42.654;23.296;2024-03-02T14:27:25;28.63;;;22.67;;
6023;SDS011;3040;42.654;23.296;2024-03-02T14:29:51;35.90;;;24.73;;
6023;SDS011;3040;42.654;23.296;2024-03-02T14:32:18;29.57;;;21.37;;
6023;SDS011;3040;42.654;23.296;2024-03-02T14:34:45;30.83;;;23.87;;
6023;SDS011;3040;42.654;23.296;2024-03-02T14:37:11;27.50;;;20.83;;
6023;SDS011;3040;42.654;23.296;2024-03-02T14:39:38;26.33;;;21.00;;